Time;durP1;ratioP1;P1;durP2;ratioP2;P2;SDS_P1;SDS_P2;PMS_P1;PMS_P2;Temp;Humidity;BMP_temperature;BMP_pressure;BME280_temperature;BME280_humidity;BME280_pressure;Samples;Min_cycle;Max_cycle;Signal;HPM_P1;HPM_P2
2022/08/06 00:05:26;;;;;;;10.80;9.70;;;;;;;21.96;63.70;99679.23;215209;1276;139900;-65
2022/08/06 00:10:40;;;;;;;9.80;8.90;;;;;;;21.98;63.86;99681.90;215374;1276;139802;-64
2022/08/06 00:15:48;;;;;;;8.90;8.20;;;;;;;21.99;63.82;99678.95;215174;1276;140755;-66
2022/08/06 00:21:13;;;;;;;11.50;8.20;;;;;;;22.01;63.82;99672.92;214981;1274;140174;-63
2022/08/06 00:26:39;;;;;;;7.90;7.10;;;;;;;22.01;63.83;99685.69;214920;1275;139381;-65
2022/08/06 00:31:54;;;;;;;9.70;8.80;;;;;;;22.02;63.84;99677.45;214983;1275;140596;-64
2022/08/06 00:37:02;;;;;;;8.90;8.20;;;;;;;22.06;63.87;99679.85;213221;1276;141855;-65
2022/08/06 00:42:06;;;;;;;9.30;8.20;;;;;;;22.08;63.91;99688.33;214796;1275;139712;-64
2022/08/06 00:47:11;;;;;;;9.30;8.50;;;;;;;22.05;63.91;99700.79;213132;1276;140372;-64
2022/08/06 00:52:36;;;;;;;9.60;8.80;;;;;;;21.99;64.05;99703.72;214182;1275;140206;-65
2022/08/06 00:57:42;;;;;;;9.50;8.70;;;;;;;21.91;64.08;99695.27;213746;1276;142025;-65
2022/08/06 01:02:46;;;;;;;10.00;8.20;;;;;;;21.86;64.16;99701.46;214083;1276;140785;-66
2022/08/06 01:07:56;;;;;;;14.30;10.10;;;;;;;21.83;64.31;99718.27;213415;1276;141141;-65
2022/08/06 01:13:02;;;;;;;10.50;9.40;;;;;;;21.77;64.56;99717.70;213503;1275;141806;-66
2022/08/06 01:18:34;;;;;;;12.30;9.30;;;;;;;21.71;64.86;99723.86;214350;1276;139604;-65
2022/08/06 01:23:44;;;;;;;8.70;8.10;;;;;;;21.66;65.11;99720.87;213494;1276;140437;-63
2022/08/06 01:29:09;;;;;;;10.20;9.20;;;;;;;21.64;65.30;99723.56;214710;1276;140104;-63
2022/08/06 01:35:12;;;;;;;12.60;10.90;;;;;;;21.65;65.62;99718.52;213847;1313;658271;-63
2022/08/06 01:40:39;;;;;;;9.30;8.50;;;;;;;21.56;65.91;99716.80;212271;1287;139409;-67
2022/08/06 01:45:43;;;;;;;;;;;;;;;21.53;66.26;99727.40;211987;1286;1341698;-65
2022/08/06 01:51:01;;;;;;;11.00;10.10;;;;;;;21.47;66.55;99740.02;214769;1285;126395;-65
2022/08/06 01:56:08;;;;;;;12.50;10.60;;;;;;;21.47;66.96;99753.45;214043;1285;141940;-67
2022/08/06 02:01:16;;;;;;;14.00;10.60;;;;;;;21.48;67.24;99771.87;213298;1286;140457;-65
2022/08/06 02:06:32;;;;;;;12.30;10.60;;;;;;;21.50;67.48;99763.48;213823;1285;139995;-66
2022/08/06 02:11:42;;;;;;;11.10;10.10;;;;;;;21.50;67.67;99750.41;213818;1285;141769;-64
2022/08/06 02:17:09;;;;;;;11.30;10.20;;;;;;;21.48;67.91;99743.34;214748;1282;140520;-66
2022/08/06 02:22:20;;;;;;;11.90;10.80;;;;;;;21.46;68.10;99740.99;212878;1283;140298;-66
2022/08/06 02:27:32;;;;;;;9.10;8.30;;;;;;;21.44;68.36;99738.67;213670;1281;139384;-67
2022/08/06 02:32:55;;;;;;;11.00;8.90;;;;;;;21.43;68.67;99753.66;213520;1282;150962;-66
2022/08/06 02:38:17;;;;;;;11.10;10.20;;;;;;;21.39;68.96;99766.56;213391;1283;140828;-67
2022/08/06 02:43:39;;;;;;;15.50;10.10;;;;;;;21.35;69.26;99776.36;212912;1283;143530;-66
2022/08/06 02:48:54;;;;;;;11.50;9.70;;;;;;;21.33;69.52;99800.20;212632;1283;161576;-66
2022/08/06 02:54:04;;;;;;;11.20;10.10;;;;;;;21.33;69.76;99813.78;213178;1283;142379;-66
2022/08/06 02:59:13;;;;;;;12.70;11.60;;;;;;;21.30;69.97;99821.37;212498;1281;140648;-68
2022/08/06 03:04:19;;;;;;;12.60;11.10;;;;;;;21.25;70.12;99822.98;212468;1283;141609;-65
2022/08/06 03:09:37;;;;;;;11.00;10.10;;;;;;;21.23;70.34;99822.66;212540;1281;140522;-66
2022/08/06 03:14:52;;;;;;;;;;;;;;;21.19;70.50;99837.89;213115;1283;141727;-67
2022/08/06 03:20:16;;;;;;;12.00;10.90;;;;;;;21.13;70.69;99870.68;213652;1283;126340;-66
2022/08/06 03:25:21;;;;;;;11.50;10.30;;;;;;;21.13;70.92;99891.88;212990;1282;140291;-66
2022/08/06 03:30:27;;;;;;;11.60;10.30;;;;;;;21.10;70.88;99909.23;214043;1281;141157;-66
2022/08/06 03:35:37;;;;;;;10.80;9.80;;;;;;;21.11;71.06;99915.71;213724;1282;210553;-66
2022/08/06 03:40:54;;;;;;;10.10;9.10;;;;;;;21.08;71.05;99928.70;214521;1275;139402;-65
2022/08/06 03:46:03;;;;;;;7.90;7.30;;;;;;;21.05;71.21;99934.38;214697;1275;140558;-66
2022/08/06 03:51:16;;;;;;;8.20;6.90;;;;;;;21.05;71.15;99945.83;215228;1274;140510;-66
2022/08/06 03:56:43;;;;;;;7.80;6.10;;;;;;;21.05;71.09;99951.52;215313;1274;141865;-66
2022/08/06 04:02:00;;;;;;;6.40;5.60;;;;;;;21.02;70.86;99956.94;216085;1274;139599;-66
2022/08/06 04:07:06;;;;;;;6.20;5.70;;;;;;;20.95;70.62;99973.96;216004;1274;139244;-66
2022/08/06 04:12:13;;;;;;;6.90;6.00;;;;;;;20.91;70.62;99975.65;215942;1274;139012;-65
2022/08/06 04:17:39;;;;;;;9.00;5.90;;;;;;;20.90;70.72;99979.73;214389;1275;141017;-66
2022/08/06 04:22:46;;;;;;;7.20;6.50;;;;;;;20.90;70.87;99985.86;215185;1274;140485;-65
2022/08/06 04:28:12;;;;;;;7.50;6.80;;;;;;;20.85;71.01;99989.90;213256;1274;139871;-66
2022/08/06 04:33:24;;;;;;;8.20;7.00;;;;;;;20.77;71.30;99994.48;215177;1274;139743;-66
2022/08/06 04:38:39;;;;;;;6.60;6.10;;;;;;;20.70;71.59;100012.70;213838;1274;139391;-66
2022/08/06 04:43:54;;;;;;;7.90;7.30;;;;;;;20.63;71.76;100050.61;214045;1274;139967;-66
2022/08/06 04:48:59;;;;;;;6.80;6.20;;;;;;;20.63;72.07;100074.23;213262;1274;142118;-66
2022/08/06 04:54:05;;;;;;;6.90;6.30;;;;;;;20.53;72.21;100040.67;213827;1274;140131;-66
2022/08/06 04:59:16;;;;;;;7.60;6.90;;;;;;;20.41;72.52;100015.02;213313;1274;139038;-66
2022/08/06 05:04:25;;;;;;;7.60;7.00;;;;;;;20.30;72.81;100008.27;213993;1274;143820;-66
2022/08/06 05:09:31;;;;;;;6.20;5.60;;;;;;;20.18;72.99;99999.59;214147;1275;140442;-66
2022/08/06 05:14:53;;;;;;;9.20;7.20;;;;;;;20.13;73.43;100002.34;213657;1274;139738;-66
2022/08/06 05:20:06;;;;;;;8.70;7.20;;;;;;;20.12;73.90;100018.22;213452;1274;140511;-66
2022/08/06 05:25:36;;;;;;;8.70;7.80;;;;;;;20.13;74.09;100023.94;214970;1274;140536;-65
2022/08/06 05:30:50;;;;;;;9.80;7.10;;;;;;;20.13;74.27;100018.41;214904;1274;140012;-65
2022/08/06 05:35:56;;;;;;;8.20;7.20;;;;;;;20.13;74.44;100014.63;213883;1277;139211;-66
2022/08/06 05:41:10;;;;;;;8.10;6.70;;;;;;;20.13;74.64;100018.59;213232;1276;141741;-66
2022/08/06 05:46:20;;;;;;;9.50;7.20;;;;;;;20.11;74.70;100016.83;214662;1276;140392;-66
2022/08/06 05:51:40;;;;;;;8.40;7.80;;;;;;;20.10;74.97;100036.42;215563;1277;141143;-66
2022/08/06 05:56:50;;;;;;;6.30;5.20;;;;;;;20.11;74.90;100043.92;214425;1275;145035;-66
2022/08/06 06:01:58;;;;;;;6.40;5.50;;;;;;;20.10;74.94;100053.04;216080;1276;140059;-66
2022/08/06 06:07:05;;;;;;;6.10;5.60;;;;;;;20.12;74.90;100059.57;215330;1277;140777;-66
2022/08/06 06:12:15;;;;;;;6.80;5.00;;;;;;;20.09;74.75;100067.45;215020;1276;140683;-66
2022/08/06 06:17:24;;;;;;;5.80;5.30;;;;;;;20.00;74.75;100077.89;213362;1276;140512;-65
2022/08/06 06:22:37;;;;;;;5.60;4.90;;;;;;;19.88;74.83;100102.27;214516;1276;141073;-65
2022/08/06 06:27:57;;;;;;;6.90;4.90;;;;;;;19.80;74.84;100113.06;213840;1277;141117;-66
2022/08/06 06:33:19;;;;;;;4.90;4.40;;;;;;;19.78;75.28;100111.95;214020;1274;141409;-66
2022/08/06 06:39:00;;;;;;;3.70;3.40;;;;;;;19.72;75.15;100133.86;213677;1274;141531;-66
2022/08/06 06:44:31;;;;;;;4.50;3.90;;;;;;;19.62;75.00;100151.58;214329;1274;141263;-66
2022/08/06 06:50:13;;;;;;;4.60;4.20;;;;;;;19.45;74.86;100168.70;213624;1274;141364;-66
2022/08/06 06:55:24;;;;;;;5.10;3.40;;;;;;;19.26;74.79;100177.10;213828;1274;152170;-66
2022/08/06 07:00:53;;;;;;;4.20;3.80;;;;;;;19.10;74.83;100175.96;213729;1274;145138;-66
2022/08/06 07:06:19;;;;;;;5.70;3.60;;;;;;;18.95;74.94;100183.90;213699;1274;141416;-66
2022/08/06 07:11:51;;;;;;;4.00;3.20;;;;;;;18.86;75.07;100199.19;214457;1274;141519;-67
2022/08/06 07:17:10;;;;;;;6.90;4.40;;;;;;;18.80;75.10;100212.39;213741;1274;139743;-66
2022/08/06 07:22:41;;;;;;;6.10;3.20;;;;;;;18.71;75.03;100229.65;213458;1274;140136;-66
2022/08/06 07:28:10;;;;;;;3.20;2.90;;;;;;;18.58;75.08;100248.05;214703;1274;140657;-67
2022/08/06 07:33:23;;;;;;;7.30;2.90;;;;;;;18.48;75.05;100251.46;215254;1274;139703;-66
2022/08/06 07:38:31;;;;;;;2.90;2.30;;;;;;;18.41;75.10;100262.86;214868;1274;140059;-66
2022/08/06 07:43:48;;;;;;;4.20;2.80;;;;;;;18.37;75.08;100274.01;215149;1274;140050;-65
2022/08/06 07:49:00;;;;;;;5.10;2.40;;;;;;;18.32;74.98;100285.04;215710;1274;139855;-65
2022/08/06 07:54:06;;;;;;;3.10;2.80;;;;;;;18.28;75.14;100285.64;216221;1274;139454;-66
2022/08/06 07:59:14;;;;;;;2.90;2.60;;;;;;;18.23;75.21;100292.86;215937;1274;139889;-66
2022/08/06 08:09:58;;;;;;;2.60;2.40;;;;;;;18.15;75.29;100310.94;214557;1277;139910;-66
2022/08/06 08:15:16;;;;;;;4.60;2.40;;;;;;;18.13;75.20;100302.41;215556;1274;141757;-66
2022/08/06 08:20:30;;;;;;;4.30;2.90;;;;;;;18.10;75.35;100301.23;215288;1274;141802;-66
2022/08/06 08:25:39;;;;;;;4.60;2.70;;;;;;;18.12;75.43;100346.61;214572;1274;141360;-66
2022/08/06 08:30:48;;;;;;;4.10;2.30;;;;;;;18.07;75.50;100362.41;213572;1274;140573;-66
2022/08/06 08:35:54;;;;;;;6.30;2.10;;;;;;;18.00;75.67;100349.70;214457;1274;143873;-66
2022/08/06 08:41:13;;;;;;;3.60;2.60;;;;;;;17.94;75.58;100356.70;214253;1274;141109;-66
2022/08/06 08:46:26;;;;;;;2.50;2.00;;;;;;;17.89;75.69;100364.45;213517;1275;143698;-66
2022/08/06 08:51:40;;;;;;;5.00;3.70;;;;;;;17.89;75.84;100362.45;213547;1277;141080;-66
2022/08/06 08:56:46;;;;;;;3.30;2.70;;;;;;;17.89;76.12;100372.39;213942;1276;141316;-66
2022/08/06 09:02:14;;;;;;;3.30;3.00;;;;;;;17.87;76.15;100374.27;213408;1274;140165;-66
2022/08/06 09:07:21;;;;;;;4.10;3.20;;;;;;;17.83;76.47;100375.71;215285;1274;139396;-68
2022/08/06 09:12:38;;;;;;;6.80;3.30;;;;;;;17.87;76.50;100389.91;214129;1274;140659;-66
2022/08/06 09:17:50;;;;;;;3.20;3.00;;;;;;;17.85;76.48;100381.71;213024;1274;139936;-66
2022/08/06 09:23:16;;;;;;;4.10;3.10;;;;;;;17.89;76.68;100382.85;214835;1274;140003;-66
2022/08/06 09:28:35;;;;;;;7.80;3.20;;;;;;;17.97;76.67;100398.52;213522;1274;140853;-66
2022/08/06 09:34:00;;;;;;;5.50;3.60;;;;;;;18.03;76.83;100409.80;215123;1274;139912;-67
2022/08/06 09:39:39;;;;;;;3.40;3.10;;;;;;;18.13;76.77;100399.92;215964;1274;140457;-65
2022/08/06 09:45:15;;;;;;;5.30;3.80;;;;;;;18.23;76.88;100422.17;214403;1274;139492;-66
2022/08/06 09:50:49;;;;;;;3.40;3.00;;;;;;;18.19;76.69;100423.52;214598;1274;140392;-67
2022/08/06 09:55:57;;;;;;;4.30;3.10;;;;;;;18.19;76.62;100432.27;215034;1274;140244;-66
2022/08/06 10:01:16;;;;;;;3.80;3.60;;;;;;;18.25;76.61;100444.42;215805;1274;140134;-67
2022/08/06 10:06:27;;;;;;;9.70;3.80;;;;;;;18.33;76.47;100450.98;215358;1274;140921;-66
2022/08/06 10:11:40;;;;;;;4.70;3.30;;;;;;;18.44;76.45;100439.41;214811;1274;140871;-66
2022/08/06 10:17:11;;;;;;;3.40;2.60;;;;;;;18.53;76.33;100459.98;213496;1274;140164;-66
2022/08/06 10:22:20;;;;;;;4.90;2.80;;;;;;;18.54;75.98;100453.35;215124;1274;140230;-66
2022/08/06 10:27:35;;;;;;;2.50;2.00;;;;;;;18.57;75.99;100466.42;214370;1274;141081;-66
2022/08/06 10:32:49;;;;;;;3.10;2.30;;;;;;;18.66;75.63;100459.64;214950;1274;140332;-65
2022/08/06 10:38:04;;;;;;;4.60;2.30;;;;;;;18.87;75.44;100462.44;213569;1274;140480;-67
2022/08/06 10:43:18;;;;;;;5.70;2.50;;;;;;;19.28;75.55;100463.11;214550;1274;151128;-66
2022/08/06 10:48:24;;;;;;;6.60;2.60;;;;;;;19.60;75.13;100472.23;213971;1274;140131;-68
2022/08/06 10:53:51;;;;;;;4.00;2.70;;;;;;;19.94;74.91;100469.48;213750;1274;140250;-66
2022/08/06 10:59:17;;;;;;;6.60;3.10;;;;;;;20.26;74.28;100469.50;213510;1274;142432;-66
2022/08/06 11:04:47;;;;;;;3.20;2.90;;;;;;;20.19;73.59;100474.98;214116;1274;141828;-66
2022/08/06 11:10:29;;;;;;;2.60;2.40;;;;;;;20.00;73.42;100476.11;214163;1274;139519;-67
2022/08/06 11:15:40;;;;;;;5.00;3.10;;;;;;;19.90;72.97;100473.98;213967;1274;140453;-65
2022/08/06 11:20:49;;;;;;;4.80;2.60;;;;;;;19.96;72.73;100477.48;213744;1274;140691;-67
2022/08/06 11:26:02;;;;;;;2.60;2.40;;;;;;;20.14;72.73;100478.84;213410;1274;141618;-66
2022/08/06 11:31:30;;;;;;;4.70;2.60;;;;;;;20.53;72.78;100477.73;214095;1274;141373;-65
2022/08/06 11:36:54;;;;;;;9.50;3.00;;;;;;;21.13;72.35;100479.67;215361;1274;141816;-65
2022/08/06 11:42:05;;;;;;;3.60;3.00;;;;;;;21.76;71.37;100481.31;215263;1274;141706;-65
2022/08/06 11:47:12;;;;;;;4.90;2.90;;;;;;;22.00;69.75;100482.20;216105;1274;140907;-66
2022/08/06 11:52:31;;;;;;;3.00;2.80;;;;;;;22.09;68.83;100482.84;216142;1274;139973;-66
2022/08/06 11:57:43;;;;;;;11.50;2.20;;;;;;;22.29;68.32;100484.80;216010;1274;139781;-66
2022/08/06 12:02:54;;;;;;;2.50;2.30;;;;;;;22.45;67.53;100486.06;214854;1274;140421;-64
2022/08/06 12:08:20;;;;;;;3.20;2.40;;;;;;;22.50;66.90;100482.09;216015;1274;140610;-64
2022/08/06 12:13:46;;;;;;;7.70;2.70;;;;;;;22.43;66.53;100490.34;214757;1274;141482;-64
2022/08/06 12:19:14;;;;;;;1.70;1.60;;;;;;;22.68;66.34;100483.75;213389;1274;140752;-63
2022/08/06 12:24:24;;;;;;;3.30;2.30;;;;;;;23.18;66.05;100482.58;214864;1274;140456;-64
2022/08/06 12:29:31;;;;;;;2.40;2.30;;;;;;;23.27;65.18;100487.46;213730;1274;140112;-64
2022/08/06 12:34:45;;;;;;;38.90;20.30;;;;;;;23.30;64.33;100483.55;214795;1274;139193;-63
2022/08/06 12:45:30;;;;;;;7.50;2.40;;;;;;;23.82;62.12;100476.60;213954;1274;141043;-64
2022/08/06 12:51:05;;;;;;;2.90;1.40;;;;;;;23.43;61.78;100480.74;213848;1274;142197;-65
2022/08/06 12:56:20;;;;;;;2.30;2.00;;;;;;;23.14;61.62;100477.59;213581;1274;139873;-65
2022/08/06 13:01:36;;;;;;;1.60;1.50;;;;;;;23.06;61.71;100473.34;214206;1274;140641;-65
2022/08/06 13:07:03;;;;;;;2.00;1.90;;;;;;;23.12;61.38;100471.53;213742;1274;154039;-67
2022/08/06 13:12:19;;;;;;;18.40;2.00;;;;;;;23.29;60.90;100470.55;214024;1274;140907;-64
2022/08/06 13:18:26;;;;;;;3.60;1.80;;;;;;;23.56;60.88;100466.73;215139;1274;139485;-64
2022/08/06 13:23:53;;;;;;;3.60;3.10;;;;;;;23.78;60.13;100465.41;213376;1274;141089;-64
2022/08/06 13:29:14;;;;;;;2.30;1.70;;;;;;;23.95;59.27;100464.61;214004;1274;140337;-64
2022/08/06 13:34:46;;;;;;;1.30;1.20;;;;;;;24.05;58.48;100468.31;214088;1274;140912;-64
2022/08/06 13:39:52;;;;;;;1.90;1.80;;;;;;;24.21;58.04;100470.08;213591;1274;140812;-63
2022/08/06 13:44:57;;;;;;;1.50;1.40;;;;;;;24.20;57.89;100475.57;212224;1274;1552354;-64
2022/08/06 13:50:02;;;;;;;3.60;1.30;;;;;;;24.35;57.24;100473.59;214489;1276;140731;-64
2022/08/06 13:55:10;;;;;;;1.80;1.40;;;;;;;24.26;56.89;100479.34;215233;1274;139070;-65
2022/08/06 14:00:20;;;;;;;3.30;1.80;;;;;;;23.93;56.27;100475.65;216087;1274;139599;-64
2022/08/06 14:05:36;;;;;;;2.60;1.70;;;;;;;23.65;56.36;100475.42;215986;1276;139363;-64
2022/08/06 14:10:54;;;;;;;1.70;1.60;;;;;;;23.26;56.38;100479.48;215006;1274;140154;-64
2022/08/06 14:16:02;;;;;;;1.80;1.70;;;;;;;23.01;56.65;100474.77;215041;1274;140050;-64
2022/08/06 14:21:09;;;;;;;2.30;1.80;;;;;;;22.82;56.73;100474.31;215286;1275;140134;-62
2022/08/06 14:26:17;;;;;;;5.10;1.60;;;;;;;22.76;57.08;100478.88;214774;1274;140650;-65
2022/08/06 14:31:28;;;;;;;2.30;1.30;;;;;;;23.02;56.99;100471.93;213766;1274;139555;-63
2022/08/06 14:36:33;;;;;;;2.80;1.20;;;;;;;23.14;56.89;100479.34;215236;1274;140983;-63
2022/08/06 14:47:09;;;;;;;1.00;1.00;;;;;;;22.93;54.70;100475.36;214140;1276;140096;-64
2022/08/06 14:52:34;;;;;;;1.60;1.40;;;;;;;23.04;54.42;100469.63;213818;1276;139260;-63
2022/08/06 14:57:39;;;;;;;1.00;1.00;;;;;;;23.16;54.15;100473.91;214079;1276;140298;-65
2022/08/06 15:03:05;;;;;;;0.90;0.70;;;;;;;23.32;53.62;100467.73;213626;1276;139475;-64
2022/08/06 15:08:15;;;;;;;2.00;1.10;;;;;;;23.47;53.30;100472.29;214450;1275;139443;-64
2022/08/06 15:13:18;;;;;;;1.90;1.10;;;;;;;23.53;52.77;100470.13;213356;1276;141414;-65
2022/08/06 15:18:22;;;;;;;6.60;1.40;;;;;;;23.54;52.23;100472.77;214305;1276;139398;-64
2022/08/06 15:23:47;;;;;;;2.70;1.50;;;;;;;23.55;51.85;100469.96;214534;1276;139675;-65
2022/08/06 15:28:56;;;;;;;3.00;1.10;;;;;;;23.35;51.52;100475.61;214826;1276;140014;-65
2022/08/06 15:34:01;;;;;;;1.00;0.80;;;;;;;23.24;51.25;100473.77;214933;1274;140713;-63
2022/08/06 15:39:09;;;;;;;1.10;1.00;;;;;;;23.20;51.10;100473.63;213988;1274;139828;-65
2022/08/06 15:44:15;;;;;;;4.70;1.00;;;;;;;23.20;50.65;100470.91;214958;1274;139815;-63
2022/08/06 15:49:20;;;;;;;1.30;1.20;;;;;;;23.18;51.06;100470.14;215436;1274;139394;-63
2022/08/06 15:54:43;;;;;;;3.20;1.10;;;;;;;23.12;51.21;100470.29;215937;1274;139834;-64
2022/08/06 15:59:47;;;;;;;9.70;1.10;;;;;;;22.95;51.41;100470.33;216193;1274;141619;-64
2022/08/06 16:04:54;;;;;;;0.90;0.90;;;;;;;22.66;51.62;100473.02;215914;1274;140857;-64
2022/08/06 16:09:58;;;;;;;2.30;1.00;;;;;;;22.47;51.79;100476.09;215487;1273;139724;-63
2022/08/06 16:15:09;;;;;;;2.40;1.30;;;;;;;22.50;52.13;100474.41;215565;1274;139846;-63
2022/08/06 16:20:23;;;;;;;3.10;1.30;;;;;;;22.57;52.22;100469.86;214486;1274;141467;-64
2022/08/06 16:25:36;;;;;;;4.00;1.00;;;;;;;22.59;52.17;100472.12;214530;1274;139618;-62
2022/08/06 16:31:00;;;;;;;1.00;1.00;;;;;;;22.54;52.03;100468.66;214017;1274;141171;-64
2022/08/06 16:36:17;;;;;;;1.10;0.90;;;;;;;22.54;52.02;100473.48;213106;1275;141270;-63
2022/08/06 16:41:21;;;;;;;0.90;0.90;;;;;;;22.50;51.85;100475.95;214752;1275;140484;-63
2022/08/06 16:46:26;;;;;;;1.20;1.20;;;;;;;22.37;51.77;100481.19;213646;1274;141185;-62
2022/08/06 16:51:30;;;;;;;2.00;1.20;;;;;;;22.20;51.77;100483.08;214965;1274;139889;-63
2022/08/06 16:56:53;;;;;;;1.10;1.00;;;;;;;22.03;51.94;100489.98;214221;1276;140187;-63
2022/08/06 17:07:24;;;;;;;3.80;1.00;;;;;;;21.73;52.99;100489.91;213389;1275;141560;-65
2022/08/06 17:12:48;;;;;;;1.30;0.90;;;;;;;21.54;53.52;100493.68;213669;1274;140792;-63
2022/08/06 17:18:00;;;;;;;1.90;1.20;;;;;;;21.34;54.36;100492.91;214530;1274;140051;-65
2022/08/06 17:23:05;;;;;;;1.50;1.40;;;;;;;21.11;54.95;100495.55;215062;1274;139457;-65
2022/08/06 17:28:09;;;;;;;1.40;1.10;;;;;;;20.89;55.74;100495.27;214487;1274;139244;-63
2022/08/06 17:33:16;;;;;;;2.10;0.90;;;;;;;20.68;56.41;100495.34;214596;1274;139442;-62
2022/08/06 17:38:25;;;;;;;1.40;1.30;;;;;;;20.49;57.14;100497.11;214566;1274;139560;-64
2022/08/06 17:43:29;;;;;;;3.50;1.00;;;;;;;20.28;57.77;100499.34;215997;1274;141423;-65
2022/08/06 17:48:53;;;;;;;1.60;1.30;;;;;;;20.05;58.26;100504.07;215904;1274;141128;-65
2022/08/06 17:53:57;;;;;;;1.30;1.20;;;;;;;19.86;58.80;100503.14;216001;1274;140912;-65
2022/08/06 17:59:20;;;;;;;2.10;1.30;;;;;;;19.64;59.61;100505.70;215175;1275;142606;-65
2022/08/06 18:04:31;;;;;;;1.30;1.20;;;;;;;19.46;60.30;100513.92;215582;1274;140135;-65
2022/08/06 18:10:21;;;;;;;1.40;1.30;;;;;;;19.24;60.54;100517.46;213573;1274;139534;-64
2022/08/06 18:15:19;;;;;;;3.30;2.00;;;;;;;19.01;60.90;100517.97;213235;1274;141158;-63
2022/08/06 18:20:24;;;;;;;3.50;1.20;;;;;;;18.80;61.11;100524.30;213634;1274;142304;-64
2022/08/06 18:25:40;;;;;;;1.00;1.00;;;;;;;18.58;61.53;100529.77;213240;1274;140478;-65
2022/08/06 18:31:00;;;;;;;1.70;1.30;;;;;;;18.37;61.93;100538.47;213520;1274;141913;-64
2022/08/06 18:36:08;;;;;;;2.80;1.50;;;;;;;18.21;62.35;100542.15;214212;1275;140402;-63
2022/08/06 18:41:12;;;;;;;6.10;1.60;;;;;;;18.06;62.84;100549.55;214280;1274;139271;-64
2022/08/06 18:46:18;;;;;;;1.70;1.60;;;;;;;17.94;63.20;100555.66;213091;1274;140165;-65
2022/08/06 18:51:46;;;;;;;1.40;1.30;;;;;;;17.75;63.68;100556.27;213844;1274;139538;-64
2022/08/06 18:56:52;;;;;;;1.10;1.10;;;;;;;17.63;63.96;100558.02;213361;1276;140974;-63
2022/08/06 19:01:59;;;;;;;1.40;1.30;;;;;;;17.53;64.24;100567.21;213729;1274;141155;-63
2022/08/06 19:07:07;;;;;;;1.50;1.50;;;;;;;17.38;64.46;100572.34;214054;1274;140126;-63
2022/08/06 19:12:12;;;;;;;1.90;1.50;;;;;;;17.12;64.71;100570.86;215104;1274;140025;-61
2022/08/06 19:17:24;;;;;;;1.40;1.20;;;;;;;16.93;65.04;100573.77;214830;1274;140287;-63
2022/08/06 19:22:50;;;;;;;1.00;1.00;;;;;;;16.65;65.37;100577.98;214940;1274;141558;-64
2022/08/06 19:27:57;;;;;;;1.60;1.50;;;;;;;16.50;65.64;100578.88;214289;1274;141703;-64
2022/08/06 19:33:21;;;;;;;2.30;1.70;;;;;;;16.41;66.02;100583.41;214115;1276;140428;-63
2022/08/06 19:38:30;;;;;;;2.20;1.40;;;;;;;16.36;66.33;100580.55;215226;1274;141645;-64
2022/08/06 19:43:37;;;;;;;1.20;1.20;;;;;;;16.31;66.44;100584.31;215789;1274;140174;-64
2022/08/06 19:49:03;;;;;;;2.40;1.50;;;;;;;16.20;66.44;100586.30;212939;1274;141642;-65
2022/08/06 19:54:08;;;;;;;1.60;1.50;;;;;;;16.06;66.52;100584.99;216069;1274;142386;-64
2022/08/06 19:59:12;;;;;;;2.00;1.60;;;;;;;15.86;66.68;100590.54;215662;1276;140645;-64
2022/08/06 20:04:37;;;;;;;1.60;1.40;;;;;;;15.64;66.90;100595.98;215464;1275;140764;-64
2022/08/06 20:09:43;;;;;;;2.00;1.70;;;;;;;15.52;67.27;100603.36;215760;1274;140631;-64
2022/08/06 20:15:06;;;;;;;2.80;1.80;;;;;;;15.49;67.57;100605.46;214571;1274;142708;-63
2022/08/06 20:20:11;;;;;;;1.70;1.60;;;;;;;15.45;67.79;100615.35;213786;1275;140688;-66
2022/08/06 20:25:18;;;;;;;2.00;1.80;;;;;;;15.38;68.09;100618.40;214189;1274;140476;-63
2022/08/06 20:30:28;;;;;;;5.30;2.70;;;;;;;15.32;68.14;100620.83;213865;1274;140090;-64
2022/08/06 20:35:33;;;;;;;3.00;1.80;;;;;;;15.31;68.22;100621.48;213563;1274;140356;-65
2022/08/06 20:40:41;;;;;;;1.50;1.40;;;;;;;15.27;68.40;100631.35;214933;1274;140379;-65
2022/08/06 20:46:09;;;;;;;1.80;1.70;;;;;;;15.29;68.42;100631.79;213917;1276;139266;-64
2022/08/06 20:51:26;;;;;;;2.00;1.30;;;;;;;15.28;68.39;100628.02;214325;1274;140862;-64
2022/08/06 20:56:36;;;;;;;5.10;1.60;;;;;;;15.27;68.32;100637.10;214795;1274;139824;-65
2022/08/06 21:01:49;;;;;;;3.40;1.30;;;;;;;15.28;68.07;100638.45;214868;1275;140228;-64
2022/08/06 21:06:56;;;;;;;1.90;1.40;;;;;;;15.28;68.02;100643.45;213878;1274;139367;-66
2022/08/06 21:12:03;;;;;;;1.40;1.30;;;;;;;15.25;67.74;100644.05;214997;1274;140164;-65
2022/08/06 21:17:11;;;;;;;1.20;1.10;;;;;;;15.19;67.52;100643.89;213882;1274;139292;-64
2022/08/06 21:22:16;;;;;;;2.80;1.10;;;;;;;15.12;67.43;100649.66;214840;1275;140267;-65
2022/08/06 21:27:21;;;;;;;2.60;1.00;;;;;;;15.07;67.30;100659.23;215202;1275;140872;-65
2022/08/06 21:32:28;;;;;;;2.20;1.70;;;;;;;15.01;67.18;100664.29;215058;1274;141772;-65
2022/08/06 21:37:40;;;;;;;3.20;1.80;;;;;;;14.95;67.35;100673.20;215217;1275;139909;-65
2022/08/06 21:43:04;;;;;;;1.10;1.00;;;;;;;14.86;67.24;100678.10;216054;1274;139888;-64
2022/08/06 21:48:12;;;;;;;2.50;1.60;;;;;;;14.77;67.21;100679.36;215915;1275;140904;-64
2022/08/06 21:53:16;;;;;;;1.70;1.30;;;;;;;14.75;67.31;100684.85;215882;1274;140745;-64
2022/08/06 21:58:40;;;;;;;1.70;1.60;;;;;;;14.78;67.24;100689.63;214821;1275;141531;-64
2022/08/06 22:03:46;;;;;;;1.90;1.70;;;;;;;14.79;66.95;100696.09;214585;1277;140239;-65
2022/08/06 22:09:11;;;;;;;3.40;1.00;;;;;;;14.77;67.05;100695.25;215045;1274;140345;-65
2022/08/06 22:14:34;;;;;;;2.10;1.40;;;;;;;14.71;66.92;100690.19;213884;1275;138975;-64
2022/08/06 22:19:40;;;;;;;2.70;1.60;;;;;;;14.64;66.67;100693.23;214168;1274;140024;-64
2022/08/06 22:24:46;;;;;;;2.10;1.30;;;;;;;14.59;66.61;100695.54;213420;1274;141980;-63
2022/08/06 22:35:21;;;;;;;2.50;1.60;;;;;;;14.52;65.71;100698.88;213512;1274;141344;-65
2022/08/06 22:40:34;;;;;;;3.20;1.90;;;;;;;14.49;65.82;100701.29;213062;1276;141451;-65
2022/08/06 22:45:43;;;;;;;2.40;1.70;;;;;;;14.45;65.77;100703.79;213170;1274;160989;-66
2022/08/06 22:51:05;;;;;;;2.40;1.40;;;;;;;14.40;65.26;100699.88;213630;1277;141959;-63
2022/08/06 22:56:21;;;;;;;1.60;1.40;;;;;;;14.35;65.56;100701.79;214039;1275;144100;-60
2022/08/06 23:01:30;;;;;;;3.80;1.60;;;;;;;14.34;65.42;100701.02;214234;1274;140884;-65
2022/08/06 23:06:55;;;;;;;1.30;1.00;;;;;;;14.34;65.29;100700.63;213729;1274;141407;-64
2022/08/06 23:11:59;;;;;;;1.70;1.60;;;;;;;14.31;65.35;100698.27;213951;1275;140153;-64
2022/08/06 23:17:05;;;;;;;4.00;1.40;;;;;;;14.26;65.36;100699.54;214997;1274;140710;-66
2022/08/06 23:22:12;;;;;;;3.00;1.70;;;;;;;14.22;65.20;100697.15;213997;1275;140393;-66
2022/08/06 23:27:21;;;;;;;1.30;1.20;;;;;;;14.17;65.01;100695.97;214310;1274;139925;-62
2022/08/06 23:32:38;;;;;;;1.80;1.30;;;;;;;14.10;64.89;100700.95;215729;1274;140484;-66
2022/08/06 23:37:43;;;;;;;1.60;1.50;;;;;;;14.04;65.15;100706.36;215846;1275;139370;-64
2022/08/06 23:43:07;;;;;;;1.90;1.70;;;;;;;14.02;65.12;100706.32;215631;1274;141393;-66
2022/08/06 23:48:15;;;;;;;3.20;1.20;;;;;;;13.99;65.01;100707.95;215693;1274;141442;-64
2022/08/06 23:53:20;;;;;;;1.70;1.50;;;;;;;13.92;65.19;100704.93;215003;1274;140430;-66
2022/08/06 23:58:44;;;;;;;2.20;1.50;;;;;;;13.84;65.50;100704.33;214998;1274;140260;-65
